sensor_id;sensor_type;location;lat;lon;timestamp;pressure;altitude;pressure_sealevel;temperature;humidity
24280;BME280;12395;42.808;23.408;2023-04-09T00:00:37;95080.78;;;7.63;100.00
24280;BME280;12395;42.808;23.408;2023-04-09T00:03:02;95076.69;;;7.60;99.83
24280;BME280;12395;42.808;23.408;2023-04-09T00:05:28;95099.19;;;7.77;98.86
24280;BME280;12395;42.808;23.408;2023-04-09T00:07:53;95091.28;;;7.77;97.09
24280;BME280;12395;42.808;23.408;2023-04-09T00:10:19;95101.09;;;7.84;97.99
24280;BME280;12395;42.808;23.408;2023-04-09T00:12:44;95105.53;;;7.83;97.69
24280;BME280;12395;42.808;23.408;2023-04-09T00:15:10;95098.25;;;7.85;98.13
24280;BME280;12395;42.808;23.408;2023-04-09T00:17:35;95099.91;;;7.86;97.12
24280;BME280;12395;42.808;23.408;2023-04-09T00:20:01;95108.88;;;7.92;95.90
24280;BME280;12395;42.808;23.408;2023-04-09T00:22:26;95094.34;;;7.81;96.59
24280;BME280;12395;42.808;23.408;2023-04-09T00:24:51;95107.38;;;7.83;95.88
24280;BME280;12395;42.808;23.408;2023-04-09T00:27:17;95108.16;;;7.83;97.01
24280;BME280;12395;42.808;23.408;2023-04-09T00:29:42;95110.38;;;7.79;96.39
24280;BME280;12395;42.808;23.408;2023-04-09T00:32:08;95122.25;;;7.90;97.00
24280;BME280;12395;42.808;23.408;2023-04-09T00:34:33;95123.34;;;7.96;95.65
24280;BME280;12395;42.808;23.408;2023-04-09T00:36:59;95103.53;;;7.85;96.15
24280;BME280;12395;42.808;23.408;2023-04-09T00:39:25;95117.00;;;7.90;94.77
24280;BME280;12395;42.808;23.408;2023-04-09T00:41:58;95105.63;;;7.90;94.16
24280;BME280;12395;42.808;23.408;2023-04-09T00:44:24;95108.00;;;7.85;95.71
24280;BME280;12395;42.808;23.408;2023-04-09T00:46:49;95118.06;;;7.96;95.45
24280;BME280;12395;42.808;23.408;2023-04-09T00:49:15;95114.63;;;7.95;94.58
24280;BME280;12395;42.808;23.408;2023-04-09T00:51:41;95108.53;;;7.95;94.52
24280;BME280;12395;42.808;23.408;2023-04-09T00:54:07;95108.31;;;7.96;93.59
24280;BME280;12395;42.808;23.408;2023-04-09T00:56:33;95115.97;;;8.06;93.91
24280;BME280;12395;42.808;23.408;2023-04-09T00:58:59;95093.44;;;7.89;93.58
24280;BME280;12395;42.808;23.408;2023-04-09T01:01:24;95111.16;;;7.95;93.97
24280;BME280;12395;42.808;23.408;2023-04-09T01:03:50;95093.25;;;7.90;94.08
24280;BME280;12395;42.808;23.408;2023-04-09T01:14:51;95105.63;;;7.90;93.60
24280;BME280;12395;42.808;23.408;2023-04-09T01:18:34;95110.53;;;7.93;93.44
24280;BME280;12395;42.808;23.408;2023-04-09T01:20:42;95103.16;;;7.88;93.72
24280;BME280;12395;42.808;23.408;2023-04-09T01:26:20;95110.25;;;7.88;93.50
24280;BME280;12395;42.808;23.408;2023-04-09T01:28:49;95107.38;;;7.83;93.66
24280;BME280;12395;42.808;23.408;2023-04-09T01:31:17;95106.00;;;7.87;93.83
24280;BME280;12395;42.808;23.408;2023-04-09T01:33:44;95105.09;;;7.79;93.90
24280;BME280;12395;42.808;23.408;2023-04-09T01:36:11;95115.44;;;7.81;93.99
24280;BME280;12395;42.808;23.408;2023-04-09T01:38:41;95105.94;;;7.80;94.95
24280;BME280;12395;42.808;23.408;2023-04-09T01:41:27;95120.81;;;7.88;93.94
24280;BME280;12395;42.808;23.408;2023-04-09T01:43:55;95109.81;;;7.84;93.55
24280;BME280;12395;42.808;23.408;2023-04-09T01:46:23;95114.91;;;7.86;93.12
24280;BME280;12395;42.808;23.408;2023-04-09T01:48:49;95107.72;;;7.79;93.55
24280;BME280;12395;42.808;23.408;2023-04-09T01:51:16;95109.75;;;7.77;93.98
24280;BME280;12395;42.808;23.408;2023-04-09T01:53:42;95121.28;;;7.76;94.08
24280;BME280;12395;42.808;23.408;2023-04-09T01:56:08;95123.38;;;7.81;94.12
24280;BME280;12395;42.808;23.408;2023-04-09T01:58:34;95122.53;;;7.80;94.18
24280;BME280;12395;42.808;23.408;2023-04-09T02:01:08;95111.75;;;7.75;93.70
24280;BME280;12395;42.808;23.408;2023-04-09T02:03:57;95122.09;;;7.77;93.74
24280;BME280;12395;42.808;23.408;2023-04-09T02:06:33;95107.38;;;7.68;94.28
24280;BME280;12395;42.808;23.408;2023-04-09T02:09:05;95111.47;;;7.70;96.02
24280;BME280;12395;42.808;23.408;2023-04-09T02:11:32;95112.94;;;7.73;96.90
24280;BME280;12395;42.808;23.408;2023-04-09T02:13:59;95087.84;;;7.62;96.81
24280;BME280;12395;42.808;23.408;2023-04-09T02:16:25;95108.72;;;7.78;97.39
24280;BME280;12395;42.808;23.408;2023-04-09T02:18:54;95106.28;;;7.77;97.39
24280;BME280;12395;42.808;23.408;2023-04-09T02:21:26;95117.53;;;7.86;98.05
24280;BME280;12395;42.808;23.408;2023-04-09T02:23:53;95099.81;;;7.79;97.32
24280;BME280;12395;42.808;23.408;2023-04-09T02:26:18;95111.91;;;7.89;97.97
24280;BME280;12395;42.808;23.408;2023-04-09T02:28:44;95098.81;;;7.80;97.84
24280;BME280;12395;42.808;23.408;2023-04-09T02:31:09;95114.91;;;7.86;98.22
24280;BME280;12395;42.808;23.408;2023-04-09T02:33:35;95108.81;;;7.85;98.01
24280;BME280;12395;42.808;23.408;2023-04-09T02:36:01;95116.63;;;7.93;97.78
24280;BME280;12395;42.808;23.408;2023-04-09T02:38:26;95109.63;;;7.86;97.74
24280;BME280;12395;42.808;23.408;2023-04-09T02:40:51;95112.53;;;7.91;97.82
24280;BME280;12395;42.808;23.408;2023-04-09T02:43:17;95104.34;;;7.86;97.91
24280;BME280;12395;42.808;23.408;2023-04-09T02:45:42;95101.09;;;7.84;97.29
24280;BME280;12395;42.808;23.408;2023-04-09T02:48:08;95107.19;;;7.84;96.90
24280;BME280;12395;42.808;23.408;2023-04-09T02:50:33;95113.09;;;7.86;97.09
24280;BME280;12395;42.808;23.408;2023-04-09T02:52:58;95117.19;;;7.89;96.46
24280;BME280;12395;42.808;23.408;2023-04-09T02:55:24;95122.47;;;7.89;95.94
24280;BME280;12395;42.808;23.408;2023-04-09T02:57:49;95105.72;;;7.82;96.47
24280;BME280;12395;42.808;23.408;2023-04-09T03:00:15;95108.81;;;7.85;96.81
24280;BME280;12395;42.808;23.408;2023-04-09T03:02:40;95100.66;;;7.80;95.42
24280;BME280;12395;42.808;23.408;2023-04-09T03:05:06;95109.19;;;7.82;95.83
24280;BME280;12395;42.808;23.408;2023-04-09T03:07:31;95103.00;;;7.75;97.13
24280;BME280;12395;42.808;23.408;2023-04-09T03:09:57;95102.56;;;7.71;97.83
24280;BME280;12395;42.808;23.408;2023-04-09T03:12:22;95104.75;;;7.68;97.93
24280;BME280;12395;42.808;23.408;2023-04-09T03:14:48;95096.31;;;7.58;98.27
24280;BME280;12395;42.808;23.408;2023-04-09T03:17:13;95088.03;;;7.46;98.44
24280;BME280;12395;42.808;23.408;2023-04-09T03:19:38;95095.94;;;7.46;97.75
24280;BME280;12395;42.808;23.408;2023-04-09T03:22:04;95094.88;;;7.41;97.19
24280;BME280;12395;42.808;23.408;2023-04-09T03:24:31;95105.13;;;7.36;96.61
24280;BME280;12395;42.808;23.408;2023-04-09T03:26:57;95101.16;;;7.25;96.24
24280;BME280;12395;42.808;23.408;2023-04-09T03:29:22;95102.16;;;7.24;95.70
24280;BME280;12395;42.808;23.408;2023-04-09T03:31:47;95092.25;;;7.12;95.49
24280;BME280;12395;42.808;23.408;2023-04-09T03:34:13;95109.88;;;7.11;95.83
24280;BME280;12395;42.808;23.408;2023-04-09T03:36:38;95095.69;;;6.97;96.11
24280;BME280;12395;42.808;23.408;2023-04-09T03:39:04;95089.06;;;6.87;96.14
24280;BME280;12395;42.808;23.408;2023-04-09T03:41:29;95099.13;;;6.83;96.91
24280;BME280;12395;42.808;23.408;2023-04-09T03:43:55;95114.50;;;6.80;97.12
24280;BME280;12395;42.808;23.408;2023-04-09T03:46:20;95103.66;;;6.75;97.17
24280;BME280;12395;42.808;23.408;2023-04-09T03:48:46;95115.72;;;6.69;97.69
24280;BME280;12395;42.808;23.408;2023-04-09T03:51:12;95105.75;;;6.65;97.10
24280;BME280;12395;42.808;23.408;2023-04-09T03:53:39;95086.50;;;6.42;97.75
24280;BME280;12395;42.808;23.408;2023-04-09T03:56:04;95104.88;;;6.50;98.23
24280;BME280;12395;42.808;23.408;2023-04-09T03:58:30;95109.66;;;6.46;98.40
24280;BME280;12395;42.808;23.408;2023-04-09T04:00:55;95115.56;;;6.48;99.10
24280;BME280;12395;42.808;23.408;2023-04-09T04:03:21;95106.75;;;6.41;99.11
24280;BME280;12395;42.808;23.408;2023-04-09T04:05:46;95105.22;;;6.47;98.95
24280;BME280;12395;42.808;23.408;2023-04-09T04:08:12;95124.50;;;6.62;99.52
24280;BME280;12395;42.808;23.408;2023-04-09T04:10:37;95121.25;;;6.60;100.00
24280;BME280;12395;42.808;23.408;2023-04-09T04:13:05;95132.06;;;6.65;100.00
24280;BME280;12395;42.808;23.408;2023-04-09T04:15:30;95125.78;;;6.66;100.00
24280;BME280;12395;42.808;23.408;2023-04-09T04:17:56;95133.91;;;6.79;100.00
24280;BME280;12395;42.808;23.408;2023-04-09T04:20:21;95133.66;;;6.88;100.00
24280;BME280;12395;42.808;23.408;2023-04-09T04:22:47;95137.38;;;6.94;99.86
24280;BME280;12395;42.808;23.408;2023-04-09T04:25:12;95132.94;;;6.94;99.83
24280;BME280;12395;42.808;23.408;2023-04-09T04:27:41;95121.78;;;6.92;99.53
24280;BME280;12395;42.808;23.408;2023-04-09T04:30:06;95122.50;;;7.01;99.51
24280;BME280;12395;42.808;23.408;2023-04-09T04:32:35;95110.69;;;6.97;99.88
24280;BME280;12395;42.808;23.408;2023-04-09T04:35:04;95101.97;;;6.96;99.56
24280;BME280;12395;42.808;23.408;2023-04-09T04:37:30;95122.31;;;7.17;99.60
24280;BME280;12395;42.808;23.408;2023-04-09T04:39:55;95129.16;;;7.26;98.99
24280;BME280;12395;42.808;23.408;2023-04-09T04:42:20;95132.66;;;7.19;99.10
24280;BME280;12395;42.808;23.408;2023-04-09T04:44:47;95126.69;;;7.25;99.12
24280;BME280;12395;42.808;23.408;2023-04-09T04:47:12;95123.16;;;7.32;99.02
24280;BME280;12395;42.808;23.408;2023-04-09T04:49:38;95142.59;;;7.46;99.23
24280;BME280;12395;42.808;23.408;2023-04-09T04:52:03;95147.16;;;7.52;99.39
24280;BME280;12395;42.808;23.408;2023-04-09T04:54:29;95146.22;;;7.59;99.66
24280;BME280;12395;42.808;23.408;2023-04-09T04:56:54;95148.50;;;7.62;99.92
24280;BME280;12395;42.808;23.408;2023-04-09T04:59:20;95151.31;;;7.75;100.00
24280;BME280;12395;42.808;23.408;2023-04-09T05:01:45;95150.28;;;7.91;100.00
24280;BME280;12395;42.808;23.408;2023-04-09T05:04:11;95137.28;;;7.90;99.76
24280;BME280;12395;42.808;23.408;2023-04-09T05:06:36;95137.63;;;8.01;99.29
24280;BME280;12395;42.808;23.408;2023-04-09T05:09:02;95147.38;;;8.22;98.73
24280;BME280;12395;42.808;23.408;2023-04-09T05:11:27;95151.13;;;8.27;98.55
24280;BME280;12395;42.808;23.408;2023-04-09T05:13:53;95155.28;;;8.36;98.75
24280;BME280;12395;42.808;23.408;2023-04-09T05:16:19;95159.06;;;8.48;98.34
24280;BME280;12395;42.808;23.408;2023-04-09T05:18:45;95141.59;;;8.47;97.49
24280;BME280;12395;42.808;23.408;2023-04-09T05:21:11;95141.66;;;8.54;96.43
24280;BME280;12395;42.808;23.408;2023-04-09T05:23:36;95151.91;;;8.64;95.47
24280;BME280;12395;42.808;23.408;2023-04-09T05:26:01;95156.03;;;8.73;95.32
24280;BME280;12395;42.808;23.408;2023-04-09T05:28:27;95147.53;;;8.77;95.44
24280;BME280;12395;42.808;23.408;2023-04-09T05:30:52;95167.22;;;8.96;93.47
24280;BME280;12395;42.808;23.408;2023-04-09T05:33:18;95151.44;;;9.02;93.21
24280;BME280;12395;42.808;23.408;2023-04-09T05:35:43;95162.94;;;9.22;91.79
24280;BME280;12395;42.808;23.408;2023-04-09T05:38:09;95164.59;;;9.23;89.50
24280;BME280;12395;42.808;23.408;2023-04-09T05:40:35;95149.97;;;9.27;89.68
24280;BME280;12395;42.808;23.408;2023-04-09T05:43:00;95156.34;;;9.40;89.51
24280;BME280;12395;42.808;23.408;2023-04-09T05:45:26;95158.66;;;9.49;88.07
24280;BME280;12395;42.808;23.408;2023-04-09T05:47:53;95155.81;;;9.51;89.04
24280;BME280;12395;42.808;23.408;2023-04-09T05:50:18;95153.00;;;9.59;88.19
24280;BME280;12395;42.808;23.408;2023-04-09T05:52:45;95161.34;;;9.56;85.98
24280;BME280;12395;42.808;23.408;2023-04-09T05:55:10;95169.13;;;9.64;86.93
24280;BME280;12395;42.808;23.408;2023-04-09T05:57:36;95162.56;;;9.53;88.16
24280;BME280;12395;42.808;23.408;2023-04-09T06:00:01;95158.91;;;9.61;87.98
24280;BME280;12395;42.808;23.408;2023-04-09T06:02:27;95163.66;;;9.72;87.38
24280;BME280;12395;42.808;23.408;2023-04-09T06:04:53;95173.50;;;9.84;86.70
24280;BME280;12395;42.808;23.408;2023-04-09T06:07:18;95169.66;;;9.87;85.92
24280;BME280;12395;42.808;23.408;2023-04-09T06:09:43;95174.78;;;9.95;86.28
24280;BME280;12395;42.808;23.408;2023-04-09T06:12:11;95166.25;;;9.99;85.66
24280;BME280;12395;42.808;23.408;2023-04-09T06:14:36;95157.25;;;9.87;84.79
24280;BME280;12395;42.808;23.408;2023-04-09T06:17:02;95163.34;;;9.88;85.49
24280;BME280;12395;42.808;23.408;2023-04-09T06:19:27;95182.13;;;9.99;84.73
24280;BME280;12395;42.808;23.408;2023-04-09T06:21:53;95167.06;;;10.00;85.13
24280;BME280;12395;42.808;23.408;2023-04-09T06:24:18;95159.84;;;10.15;84.99
24280;BME280;12395;42.808;23.408;2023-04-09T06:26:43;95163.53;;;10.27;84.19
24280;BME280;12395;42.808;23.408;2023-04-09T06:29:10;95172.13;;;10.42;83.91
24280;BME280;12395;42.808;23.408;2023-04-09T06:31:35;95161.81;;;10.60;83.45
24280;BME280;12395;42.808;23.408;2023-04-09T06:34:01;95154.66;;;10.61;82.41
24280;BME280;12395;42.808;23.408;2023-04-09T06:36:26;95172.22;;;10.81;81.96
24280;BME280;12395;42.808;23.408;2023-04-09T06:38:52;95177.13;;;11.11;80.96
24280;BME280;12395;42.808;23.408;2023-04-09T06:41:21;95176.53;;;11.28;79.62
24280;BME280;12395;42.808;23.408;2023-04-09T06:43:47;95191.81;;;11.46;76.96
24280;BME280;12395;42.808;23.408;2023-04-09T06:46:13;95190.78;;;11.60;77.77
24280;BME280;12395;42.808;23.408;2023-04-09T06:48:41;95184.03;;;11.64;77.86
24280;BME280;12395;42.808;23.408;2023-04-09T06:51:09;95194.66;;;11.51;77.13
24280;BME280;12395;42.808;23.408;2023-04-09T06:53:34;95174.09;;;11.27;78.36
24280;BME280;12395;42.808;23.408;2023-04-09T06:56:00;95180.00;;;11.09;78.70
24280;BME280;12395;42.808;23.408;2023-04-09T06:58:25;95186.50;;;10.87;80.35
24280;BME280;12395;42.808;23.408;2023-04-09T07:00:51;95198.28;;;10.78;80.75
24280;BME280;12395;42.808;23.408;2023-04-09T07:03:16;95199.13;;;10.78;81.26
24280;BME280;12395;42.808;23.408;2023-04-09T07:05:42;95185.03;;;10.78;81.97
24280;BME280;12395;42.808;23.408;2023-04-09T07:08:07;95204.44;;;10.92;80.40
24280;BME280;12395;42.808;23.408;2023-04-09T07:10:32;95196.47;;;10.85;80.76
24280;BME280;12395;42.808;23.408;2023-04-09T07:12:58;95197.88;;;10.74;80.89
24280;BME280;12395;42.808;23.408;2023-04-09T07:15:23;95204.00;;;10.75;81.03
24280;BME280;12395;42.808;23.408;2023-04-09T07:17:48;95209.09;;;10.76;81.26
24280;BME280;12395;42.808;23.408;2023-04-09T07:20:14;95196.25;;;10.60;80.59
24280;BME280;12395;42.808;23.408;2023-04-09T07:22:39;95208.66;;;10.53;82.12
24280;BME280;12395;42.808;23.408;2023-04-09T07:25:06;95210.88;;;10.56;81.71
24280;BME280;12395;42.808;23.408;2023-04-09T07:27:31;95204.56;;;10.57;81.20
24280;BME280;12395;42.808;23.408;2023-04-09T07:29:58;95205.16;;;10.53;80.82
24280;BME280;12395;42.808;23.408;2023-04-09T07:32:24;95214.78;;;10.54;80.92
24280;BME280;12395;42.808;23.408;2023-04-09T07:34:52;95208.22;;;10.56;80.08
24280;BME280;12395;42.808;23.408;2023-04-09T07:37:18;95218.66;;;10.64;79.55
24280;BME280;12395;42.808;23.408;2023-04-09T07:39:45;95196.69;;;10.77;79.67
24280;BME280;12395;42.808;23.408;2023-04-09T07:42:11;95217.94;;;11.10;78.31
24280;BME280;12395;42.808;23.408;2023-04-09T07:44:36;95211.41;;;11.12;78.82
24280;BME280;12395;42.808;23.408;2023-04-09T07:47:03;95212.84;;;11.21;77.46
24280;BME280;12395;42.808;23.408;2023-04-09T07:49:30;95210.41;;;11.46;78.31
24280;BME280;12395;42.808;23.408;2023-04-09T07:51:56;95215.50;;;11.80;74.57
24280;BME280;12395;42.808;23.408;2023-04-09T07:54:21;95219.47;;;12.15;74.15
24280;BME280;12395;42.808;23.408;2023-04-09T07:56:47;95225.13;;;12.38;74.42
24280;BME280;12395;42.808;23.408;2023-04-09T07:59:13;95228.72;;;12.64;71.93
24280;BME280;12395;42.808;23.408;2023-04-09T08:01:41;95217.59;;;12.73;70.67
24280;BME280;12395;42.808;23.408;2023-04-09T08:04:07;95224.28;;;12.89;69.63
24280;BME280;12395;42.808;23.408;2023-04-09T08:06:33;95232.63;;;12.92;69.10
24280;BME280;12395;42.808;23.408;2023-04-09T08:08:58;95226.78;;;12.77;69.13
24280;BME280;12395;42.808;23.408;2023-04-09T08:11:23;95235.66;;;12.65;69.17
24280;BME280;12395;42.808;23.408;2023-04-09T08:13:53;95231.19;;;12.59;69.09
24280;BME280;12395;42.808;23.408;2023-04-09T08:16:19;95220.75;;;12.57;69.85
24280;BME280;12395;42.808;23.408;2023-04-09T08:18:46;95240.91;;;12.78;70.04
24280;BME280;12395;42.808;23.408;2023-04-09T08:21:11;95239.34;;;13.01;69.03
24280;BME280;12395;42.808;23.408;2023-04-09T08:23:37;95239.56;;;13.00;68.32
24280;BME280;12395;42.808;23.408;2023-04-09T08:26:02;95234.91;;;12.89;68.05
24280;BME280;12395;42.808;23.408;2023-04-09T08:28:28;95242.50;;;13.23;67.25
24280;BME280;12395;42.808;23.408;2023-04-09T08:30:53;95244.34;;;13.23;66.89
24280;BME280;12395;42.808;23.408;2023-04-09T08:33:19;95243.44;;;13.35;67.00
24280;BME280;12395;42.808;23.408;2023-04-09T08:35:45;95241.31;;;13.44;66.28
24280;BME280;12395;42.808;23.408;2023-04-09T08:38:10;95238.50;;;13.63;66.14
24280;BME280;12395;42.808;23.408;2023-04-09T08:40:36;95242.53;;;13.72;65.64
24280;BME280;12395;42.808;23.408;2023-04-09T08:43:04;95243.72;;;13.76;65.80
24280;BME280;12395;42.808;23.408;2023-04-09T08:45:31;95243.50;;;13.78;63.39
24280;BME280;12395;42.808;23.408;2023-04-09T08:47:56;95233.31;;;13.93;64.91
24280;BME280;12395;42.808;23.408;2023-04-09T08:50:27;95241.56;;;14.10;63.11
24280;BME280;12395;42.808;23.408;2023-04-09T08:52:53;95221.69;;;14.30;61.69
24280;BME280;12395;42.808;23.408;2023-04-09T08:55:20;95220.50;;;14.44;62.50
24280;BME280;12395;42.808;23.408;2023-04-09T08:57:46;95220.06;;;14.29;62.58
24280;BME280;12395;42.808;23.408;2023-04-09T09:00:11;95214.91;;;14.10;62.69
24280;BME280;12395;42.808;23.408;2023-04-09T09:02:37;95205.28;;;13.90;63.00
24280;BME280;12395;42.808;23.408;2023-04-09T09:05:04;95213.84;;;13.92;64.25
24280;BME280;12395;42.808;23.408;2023-04-09T09:07:30;95219.19;;;13.92;63.87
24280;BME280;12395;42.808;23.408;2023-04-09T09:09:57;95209.94;;;13.77;63.70
24280;BME280;12395;42.808;23.408;2023-04-09T09:14:57;95207.22;;;13.34;64.99
24280;BME280;12395;42.808;23.408;2023-04-09T09:17:23;95186.06;;;13.39;64.33
24280;BME280;12395;42.808;23.408;2023-04-09T09:19:48;95189.63;;;13.58;64.56
24280;BME280;12395;42.808;23.408;2023-04-09T09:22:13;95189.41;;;13.77;63.24
24280;BME280;12395;42.808;23.408;2023-04-09T09:24:51;95194.03;;;13.88;63.92
24280;BME280;12395;42.808;23.408;2023-04-09T09:27:36;95203.66;;;14.08;62.51
24280;BME280;12395;42.808;23.408;2023-04-09T09:30:04;95192.75;;;14.34;62.54
24280;BME280;12395;42.808;23.408;2023-04-09T09:32:34;95199.41;;;14.43;61.42
24280;BME280;12395;42.808;23.408;2023-04-09T09:35:04;95181.06;;;14.35;61.92
24280;BME280;12395;42.808;23.408;2023-04-09T09:37:31;95191.09;;;14.51;60.54
24280;BME280;12395;42.808;23.408;2023-04-09T09:39:57;95180.00;;;14.36;58.64
24280;BME280;12395;42.808;23.408;2023-04-09T09:42:23;95167.97;;;14.27;60.40
24280;BME280;12395;42.808;23.408;2023-04-09T09:44:49;95179.19;;;14.35;59.30
24280;BME280;12395;42.808;23.408;2023-04-09T09:47:17;95178.50;;;14.40;59.16
24280;BME280;12395;42.808;23.408;2023-04-09T09:49:43;95164.53;;;14.26;57.15
24280;BME280;12395;42.808;23.408;2023-04-09T09:52:09;95171.56;;;14.39;59.65
24280;BME280;12395;42.808;23.408;2023-04-09T09:54:40;95165.31;;;14.27;55.42
24280;BME280;12395;42.808;23.408;2023-04-09T09:57:10;95166.31;;;14.32;58.91
24280;BME280;12395;42.808;23.408;2023-04-09T09:59:40;95170.13;;;14.54;57.90
24280;BME280;12395;42.808;23.408;2023-04-09T10:02:15;95158.59;;;14.72;58.46
24280;BME280;12395;42.808;23.408;2023-04-09T10:04:43;95161.03;;;15.03;56.65
24280;BME280;12395;42.808;23.408;2023-04-09T10:07:08;95152.22;;;15.14;56.13
24280;BME280;12395;42.808;23.408;2023-04-09T10:09:36;95135.91;;;15.22;55.26
24280;BME280;12395;42.808;23.408;2023-04-09T10:12:03;95154.00;;;15.32;54.01
24280;BME280;12395;42.808;23.408;2023-04-09T10:14:31;95145.28;;;15.13;53.00
24280;BME280;12395;42.808;23.408;2023-04-09T10:16:57;95146.97;;;14.96;53.13
24280;BME280;12395;42.808;23.408;2023-04-09T10:19:22;95151.34;;;14.79;53.24
24280;BME280;12395;42.808;23.408;2023-04-09T10:22:18;95136.69;;;14.70;55.15
24280;BME280;12395;42.808;23.408;2023-04-09T10:24:45;95130.97;;;14.96;54.92
24280;BME280;12395;42.808;23.408;2023-04-09T10:27:13;95131.88;;;15.43;53.51
24280;BME280;12395;42.808;23.408;2023-04-09T10:29:46;95135.25;;;15.62;51.92
24280;BME280;12395;42.808;23.408;2023-04-09T10:32:17;95127.22;;;15.62;50.10
24280;BME280;12395;42.808;23.408;2023-04-09T10:34:45;95117.94;;;15.64;51.04
24280;BME280;12395;42.808;23.408;2023-04-09T10:37:16;95135.59;;;15.77;51.34
24280;BME280;12395;42.808;23.408;2023-04-09T10:39:46;95132.09;;;15.41;49.75
24280;BME280;12395;42.808;23.408;2023-04-09T10:42:38;95129.63;;;15.28;50.97
24280;BME280;12395;42.808;23.408;2023-04-09T10:47:35;95117.72;;;15.54;53.06
24280;BME280;12395;42.808;23.408;2023-04-09T10:52:42;95112.47;;;15.59;48.00
24280;BME280;12395;42.808;23.408;2023-04-09T10:55:08;95109.47;;;15.56;45.63
24280;BME280;12395;42.808;23.408;2023-04-09T10:57:34;95099.56;;;15.68;51.36
24280;BME280;12395;42.808;23.408;2023-04-09T11:00:00;95098.56;;;15.69;50.01
24280;BME280;12395;42.808;23.408;2023-04-09T11:02:53;95092.97;;;15.82;50.22
24280;BME280;12395;42.808;23.408;2023-04-09T11:05:35;95092.34;;;15.91;50.53
24280;BME280;12395;42.808;23.408;2023-04-09T11:08:07;95096.28;;;16.12;48.31
24280;BME280;12395;42.808;23.408;2023-04-09T11:10:34;95089.34;;;16.28;47.58
24280;BME280;12395;42.808;23.408;2023-04-09T11:13:01;95098.50;;;16.32;47.15
24280;BME280;12395;42.808;23.408;2023-04-09T11:15:27;95082.53;;;16.48;44.91
24280;BME280;12395;42.808;23.408;2023-04-09T11:17:52;95074.03;;;16.79;47.36
24280;BME280;12395;42.808;23.408;2023-04-09T11:20:20;95083.22;;;17.00;44.48
24280;BME280;12395;42.808;23.408;2023-04-09T11:22:48;95087.53;;;17.18;43.87
24280;BME280;12395;42.808;23.408;2023-04-09T11:27:46;95070.75;;;17.55;42.76
24280;BME280;12395;42.808;23.408;2023-04-09T11:30:12;95087.22;;;17.64;42.12
24280;BME280;12395;42.808;23.408;2023-04-09T11:32:38;95093.22;;;17.54;41.99
24280;BME280;12395;42.808;23.408;2023-04-09T11:35:04;95087.44;;;17.62;42.02
24280;BME280;12395;42.808;23.408;2023-04-09T11:37:29;95069.03;;;17.66;41.41
24280;BME280;12395;42.808;23.408;2023-04-09T11:39:55;95070.41;;;17.52;41.23
24280;BME280;12395;42.808;23.408;2023-04-09T11:42:22;95072.91;;;17.58;41.01
24280;BME280;12395;42.808;23.408;2023-04-09T11:44:49;95068.06;;;17.55;40.65
24280;BME280;12395;42.808;23.408;2023-04-09T11:47:16;95074.22;;;17.56;40.81
24280;BME280;12395;42.808;23.408;2023-04-09T11:49:44;95064.19;;;17.30;41.24
24280;BME280;12395;42.808;23.408;2023-04-09T11:52:10;95059.63;;;17.14;40.16
24280;BME280;12395;42.808;23.408;2023-04-09T11:54:36;95064.00;;;16.86;39.89
24280;BME280;12395;42.808;23.408;2023-04-09T11:57:04;95059.75;;;16.46;41.19
24280;BME280;12395;42.808;23.408;2023-04-09T11:59:30;95064.78;;;16.14;42.17
24280;BME280;12395;42.808;23.408;2023-04-09T12:01:57;95057.66;;;15.80;45.90
24280;BME280;12395;42.808;23.408;2023-04-09T12:04:23;95047.13;;;15.50;48.58
24280;BME280;12395;42.808;23.408;2023-04-09T12:06:48;95039.59;;;15.47;48.46
24280;BME280;12395;42.808;23.408;2023-04-09T12:09:14;95055.84;;;15.46;48.54
24280;BME280;12395;42.808;23.408;2023-04-09T12:11:42;95053.78;;;14.72;50.37
24280;BME280;12395;42.808;23.408;2023-04-09T12:14:15;95034.19;;;14.07;52.38
24280;BME280;12395;42.808;23.408;2023-04-09T12:16:42;95018.63;;;13.74;53.78
24280;BME280;12395;42.808;23.408;2023-04-09T12:19:11;95048.19;;;13.84;54.74
24280;BME280;12395;42.808;23.408;2023-04-09T12:24:09;95038.91;;;13.57;55.17
24280;BME280;12395;42.808;23.408;2023-04-09T12:26:34;95037.06;;;13.57;55.67
24280;BME280;12395;42.808;23.408;2023-04-09T12:29:00;95043.78;;;13.60;55.41
24280;BME280;12395;42.808;23.408;2023-04-09T12:31:25;95040.81;;;13.32;55.24
24280;BME280;12395;42.808;23.408;2023-04-09T12:33:50;95043.72;;;13.48;55.20
24280;BME280;12395;42.808;23.408;2023-04-09T12:36:16;95030.38;;;13.30;56.97
24280;BME280;12395;42.808;23.408;2023-04-09T12:38:41;95030.53;;;13.35;56.35
24280;BME280;12395;42.808;23.408;2023-04-09T12:41:07;95040.22;;;13.48;56.40
24280;BME280;12395;42.808;23.408;2023-04-09T12:43:33;95036.63;;;13.42;57.09
24280;BME280;12395;42.808;23.408;2023-04-09T12:45:58;95045.41;;;13.43;57.27
24280;BME280;12395;42.808;23.408;2023-04-09T12:48:24;95046.47;;;13.60;58.00
24280;BME280;12395;42.808;23.408;2023-04-09T12:50:49;95031.34;;;13.72;56.12
24280;BME280;12395;42.808;23.408;2023-04-09T12:53:15;95029.44;;;13.79;55.13
24280;BME280;12395;42.808;23.408;2023-04-09T12:55:40;95035.88;;;13.53;55.40
24280;BME280;12395;42.808;23.408;2023-04-09T12:58:06;95049.84;;;13.67;57.63
24280;BME280;12395;42.808;23.408;2023-04-09T13:00:31;95032.97;;;13.73;56.64
24280;BME280;12395;42.808;23.408;2023-04-09T13:02:57;95025.78;;;13.73;56.67
24280;BME280;12395;42.808;23.408;2023-04-09T13:05:22;95028.91;;;13.52;56.20
24280;BME280;12395;42.808;23.408;2023-04-09T13:07:48;95022.75;;;13.15;58.18
24280;BME280;12395;42.808;23.408;2023-04-09T13:10:13;95032.69;;;13.02;58.89
24280;BME280;12395;42.808;23.408;2023-04-09T13:12:39;95004.81;;;12.86;60.25
24280;BME280;12395;42.808;23.408;2023-04-09T13:15:04;95024.69;;;13.08;60.52
24280;BME280;12395;42.808;23.408;2023-04-09T13:17:30;95019.81;;;12.99;59.30